createdAt,value
2019-03-19T00:02:32.338Z,80.30
2019-03-19T00:09:17.199Z,80.20
2019-03-19T00:16:02.060Z,80.50
2019-03-19T00:22:47.146Z,80.70
2019-03-19T00:29:32.001Z,81.10
2019-03-19T00:36:17.620Z,82.40
2019-03-19T00:43:03.194Z,84.70
2019-03-19T00:49:48.179Z,84.10
2019-03-19T00:56:33.042Z,82.20
2019-03-19T01:03:17.972Z,81.30
2019-03-19T01:10:02.903Z,80.10
2019-03-19T01:16:49.166Z,78.10
2019-03-19T01:23:34.191Z,77.70
2019-03-19T01:30:19.114Z,76.00
2019-03-19T01:37:04.052Z,76.30
2019-03-19T01:43:49.101Z,76.90
2019-03-19T01:50:33.993Z,77.00
2019-03-19T01:57:18.878Z,76.70
2019-03-19T02:04:04.386Z,76.10
2019-03-19T02:10:50.848Z,76.30
2019-03-19T02:17:36.768Z,76.40
2019-03-19T02:24:21.846Z,75.90
2019-03-19T02:31:06.697Z,75.10
2019-03-19T02:37:53.624Z,73.60
2019-03-19T02:44:38.544Z,73.70
2019-03-19T02:51:23.410Z,73.50
2019-03-19T02:58:08.268Z,74.30
2019-03-19T03:04:53.372Z,74.70
2019-03-19T03:11:38.320Z,75.10
2019-03-19T03:18:23.366Z,74.80
2019-03-19T03:25:11.875Z,74.50
2019-03-19T03:31:57.703Z,74.00
2019-03-19T03:38:42.728Z,73.00
2019-03-19T03:45:27.597Z,73.00
2019-03-19T03:52:12.532Z,73.20
2019-03-19T03:59:00.992Z,73.20
2019-03-19T04:05:44.088Z,70.40
2019-03-19T04:12:28.957Z,70.60
2019-03-19T04:19:14.463Z,70.20
2019-03-19T04:26:01.421Z,69.50
2019-03-19T04:32:46.395Z,70.30
2019-03-19T04:39:31.255Z,70.00
2019-03-19T04:46:16.115Z,69.20
2019-03-19T04:53:01.055Z,68.90
2019-03-19T04:59:46.637Z,69.20
2019-03-19T05:06:31.564Z,70.20
2019-03-19T05:13:16.642Z,70.90
2019-03-19T05:20:01.942Z,72.80
2019-03-19T05:26:46.879Z,74.00
2019-03-19T05:33:31.752Z,74.20
2019-03-19T05:40:18.214Z,74.80
2019-03-19T05:47:03.099Z,74.20
2019-03-19T05:53:48.031Z,74.00
2019-03-19T06:00:37.679Z,73.90
2019-03-19T06:07:23.171Z,73.70
2019-03-19T06:14:08.037Z,72.60
2019-03-19T06:20:52.905Z,72.40
2019-03-19T06:27:37.838Z,71.90
2019-03-19T06:34:22.699Z,69.50
2019-03-19T06:41:07.677Z,65.20
2019-03-19T06:47:52.750Z,60.60
2019-03-19T06:54:37.757Z,57.10
2019-03-19T07:01:22.616Z,60.00
2019-03-19T07:08:07.475Z,40.40
2019-03-19T07:14:52.345Z,31.10
2019-03-19T07:21:37.215Z,30.70
2019-03-19T07:28:22.557Z,26.40
2019-03-19T07:35:07.845Z,23.60
2019-03-19T07:41:52.791Z,21.50
2019-03-19T07:48:37.732Z,19.90
2019-03-19T07:55:22.687Z,20.10
2019-03-19T08:02:07.972Z,18.50
2019-03-19T08:08:52.903Z,19.20
2019-03-19T08:15:37.846Z,19.00
2019-03-19T08:22:23.776Z,18.20
2019-03-19T08:29:08.634Z,18.10
2019-03-19T08:35:54.472Z,18.90
2019-03-19T08:42:39.327Z,19.30
2019-03-19T08:49:24.254Z,19.40
2019-03-19T08:56:09.119Z,21.30
2019-03-19T09:02:53.983Z,21.40
2019-03-19T09:09:38.830Z,22.10
2019-03-19T09:16:23.694Z,22.60
2019-03-19T09:23:08.623Z,20.50
2019-03-19T09:29:53.479Z,18.60
2019-03-19T09:36:38.339Z,18.10
2019-03-19T09:43:23.270Z,18.60
2019-03-19T09:50:18.818Z,18.10
2019-03-19T09:57:03.752Z,17.50
2019-03-19T10:03:48.761Z,18.20
2019-03-19T10:10:33.658Z,18.90
2019-03-19T10:17:18.559Z,19.70
2019-03-19T10:24:03.587Z,20.60
2019-03-19T10:30:48.447Z,20.30
2019-03-19T10:37:33.641Z,20.70
2019-03-19T10:44:19.228Z,21.60
2019-03-19T10:51:04.438Z,23.40
2019-03-19T10:57:49.363Z,25.60
2019-03-19T11:04:34.238Z,25.70
2019-03-19T11:11:19.103Z,25.50
2019-03-19T11:18:04.228Z,25.20
2019-03-19T11:24:49.170Z,26.20
2019-03-19T11:31:35.303Z,24.00
2019-03-19T11:38:20.627Z,24.80
2019-03-19T11:45:08.691Z,25.60
2019-03-19T11:51:53.697Z,26.50
2019-03-19T11:58:39.737Z,26.90
2019-03-19T12:05:24.698Z,26.50
2019-03-19T12:12:11.598Z,26.00
2019-03-19T12:18:57.303Z,25.10
2019-03-19T12:25:42.468Z,25.00
2019-03-19T12:32:27.340Z,25.10
2019-03-19T12:39:12.468Z,23.70
2019-03-19T12:45:57.379Z,22.90
2019-03-19T12:52:43.926Z,24.20
2019-03-19T12:59:28.893Z,23.90
2019-03-19T13:06:14.047Z,23.90
2019-03-19T13:12:58.903Z,23.30
2019-03-19T13:19:43.887Z,24.30
2019-03-19T13:26:28.755Z,25.20
2019-03-19T13:33:13.611Z,26.60
2019-03-19T13:39:58.745Z,26.60
2019-03-19T13:46:43.618Z,26.50
2019-03-19T13:53:28.646Z,25.80
2019-03-19T14:00:17.236Z,25.50
2019-03-19T14:07:02.082Z,26.00
2019-03-19T14:13:46.942Z,23.40
2019-03-19T14:20:31.799Z,23.10
2019-03-19T14:27:16.722Z,23.60
2019-03-19T14:34:02.807Z,23.70
2019-03-19T14:40:47.928Z,24.20
2019-03-19T14:47:33.247Z,23.60
2019-03-19T14:54:18.182Z,24.00
2019-03-19T15:01:03.108Z,24.50
2019-03-19T15:07:49.057Z,23.80
2019-03-19T15:14:35.066Z,24.00
2019-03-19T15:21:20.184Z,23.30
2019-03-19T15:28:05.342Z,22.10
2019-03-19T15:34:50.207Z,23.20
2019-03-19T15:41:35.650Z,22.80
2019-03-19T15:48:21.321Z,22.30
2019-03-19T15:55:08.181Z,22.90
2019-03-19T16:01:53.256Z,23.00
2019-03-19T16:08:39.793Z,22.90
2019-03-19T16:15:26.274Z,23.00
2019-03-19T16:22:12.049Z,24.50
2019-03-19T16:28:57.136Z,25.00
2019-03-19T16:35:42.133Z,25.60
2019-03-19T16:42:28.998Z,25.50
2019-03-19T16:49:14.327Z,25.90
2019-03-19T16:55:59.405Z,25.50
2019-03-19T17:02:44.621Z,26.40
2019-03-19T17:09:30.568Z,26.20
2019-03-19T17:16:16.010Z,26.50
2019-03-19T17:23:01.045Z,27.30
2019-03-19T17:29:47.064Z,27.90
2019-03-19T17:36:31.907Z,30.00
2019-03-19T17:43:16.750Z,29.30
2019-03-19T17:50:01.671Z,30.50
2019-03-19T17:56:46.589Z,32.70
2019-03-19T18:03:31.583Z,32.50
2019-03-19T18:10:16.679Z,33.30
2019-03-19T18:17:01.598Z,35.90
2019-03-19T18:23:46.446Z,37.50
2019-03-19T18:30:31.994Z,38.10
2019-03-19T18:37:16.906Z,39.20
2019-03-19T18:44:02.521Z,40.40
2019-03-19T18:50:47.422Z,41.00
2019-03-19T18:57:32.423Z,41.40
2019-03-19T19:04:17.343Z,42.70
2019-03-19T19:11:02.195Z,43.70
2019-03-19T19:17:47.060Z,44.60
2019-03-19T19:24:32.042Z,44.90
2019-03-19T19:31:16.969Z,47.40
2019-03-19T19:38:03.440Z,51.60
2019-03-19T19:44:50.242Z,53.10
2019-03-19T19:51:35.244Z,53.70
2019-03-19T19:58:20.898Z,54.70
2019-03-19T20:05:06.726Z,54.40
2019-03-19T20:11:51.863Z,55.30
2019-03-19T20:18:36.870Z,55.70
2019-03-19T20:25:21.791Z,55.80
2019-03-19T20:32:06.655Z,57.50
2019-03-19T20:38:51.603Z,57.60
2019-03-19T20:45:36.455Z,56.80
2019-03-19T20:52:21.371Z,55.10
2019-03-19T20:59:06.318Z,55.60
2019-03-19T21:05:51.163Z,60.30
2019-03-19T21:12:36.178Z,60.40
2019-03-19T21:19:22.114Z,60.90
2019-03-19T21:26:07.031Z,60.50
2019-03-19T21:32:51.946Z,59.90
2019-03-19T21:39:36.875Z,58.60
2019-03-19T21:46:21.727Z,60.70
2019-03-19T21:53:07.639Z,61.50
2019-03-19T21:59:52.501Z,61.80
2019-03-19T22:06:37.671Z,62.20
2019-03-19T22:13:22.667Z,61.70
2019-03-19T22:20:07.847Z,61.40
2019-03-19T22:26:52.695Z,62.50
2019-03-19T22:33:41.137Z,63.80
2019-03-19T22:40:26.188Z,63.40
2019-03-19T22:47:11.108Z,63.00
2019-03-19T22:53:56.552Z,64.70
2019-03-19T23:00:43.249Z,65.80
2019-03-19T23:07:29.717Z,65.60
2019-03-19T23:14:14.571Z,65.00
2019-03-19T23:21:00.663Z,64.10
2019-03-19T23:27:45.777Z,64.50
2019-03-19T23:34:38.086Z,64.70
2019-03-19T23:41:17.341Z,65.00
2019-03-19T23:48:02.448Z,66.40
2019-03-19T23:54:47.311Z,67.00
